NCAR-RAP Real-Time Weather Data

Output produced by METARs form (23 June 2018  19:39 UTC)
found at http://weather.rap.ucar.edu/surface/
 
RJAF 230700Z 17006KT 9999 -RA FEW005 SCT050 BKN080 17/16 Q1007
RJAF 230600Z 16007KT 9000 -RA FEW005 SCT030 BKN040 17/15 Q1007
RJAF 230500Z 21008KT 9999 -RA FEW012 SCT030 BKN080 20/16 Q1006
RJAF 230400Z 01004KT 340V040 9999 -RA FEW020 SCT040 BKN080 19/15 Q1007
RJAF 230300Z VRB02KT 9999 -RA FEW020 BKN100 20/14 Q1007
RJAF 230200Z VRB02KT 9999 -RA FEW015 SCT030 BKN080 19/14 Q1008
RJAF 230100Z 36003KT 320V060 9999 -RA FEW020 BKN100 BKN130 17/13 Q1010
RJAF 230000Z VRB02KT CAVOK 17/13 Q1010
RJAF 222330Z VRB02KT 9999 FEW090 SCT160 BKN/// 17/12 Q1011
RJAF 222310Z VRB02KT 9999 FEW090 BKN170 BKN/// 17/13 Q1011 RMK 1AC090 5AC170 A2987
RJAF 220700Z 01008KT 9999 FEW070 BKN/// 27/08 Q1008
RJAF 220600Z 01005KT 290V060 9999 FEW070 SCT/// 26/08 Q1008
RJAF 220500Z 35004KT 240V050 9999 FEW060 SCT/// 26/09 Q1009
RJAF 220400Z 34004KT 290V090 9999 FEW060 BKN/// 25/08 Q1009
RJAF 220300Z 34005KT 280V010 9999 FEW050 BKN/// 25/11 Q1010
RJAF 220200Z 32004KT 260V040 9999 FEW050 BKN/// 23/11 Q1010
RJAF 220100Z VRB04KT 9999 FEW035 BKN/// 22/11 Q1011
RJAF 220000Z 03003KT 310V110 9999 FEW030 SCT/// 19/12 Q1011
RJAF 212330Z VRB04KT 9999 FEW025 SCT/// 18/12 Q1011
RJAF 212310Z 35003KT 270V040 9999 FEW020 SCT/// 19/13 Q1011 RMK 1CU020 A2987